New York, New York
Traffic Map
Current Weather Conditions
New York, New York
Clear
Clear

Feels Like: 0°
Wind Chill: Ceiling: Unl
Heat Index: Visibility: 10mi
Dew Point: -5° Wind: 9mph
Humidity: 55% Direction: 290° (WNW)
Pressure: 30.04in Gusts: 0mph
Raw Report DataKNYC 200451Z AUTO 29008KT 250V320 10SM CLR 03/M05 A3004 RMK AO2 SLP165 T00331050 400940033 $
Traffic Incident Summary
Active as of:
Severity:
Category:
InformationThere was an issue retrieving the traffic information for this location. Please try a different location or try again shortly.
Advertisements